Time;durP1;ratioP1;P1;durP2;ratioP2;P2;SDS_P1;SDS_P2;PMS_P1;PMS_P2;Temp;Humidity;BMP_temperature;BMP_pressure;BME280_temperature;BME280_humidity;BME280_pressure;Samples;Min_cycle;Max_cycle;Signal;HPM_P1;HPM_P2
2023/08/22 00:01:23;;;;;;;14.60;9.00;;;;;;;;;;5115440;27;20027;-71
2023/08/22 00:03:49;;;;;;;20.25;12.90;;;;;;;;;;5133015;27;20409;-69
2023/08/22 00:06:15;;;;;;;19.45;11.45;;;;;;;;;;5133004;27;20590;-69
2023/08/22 00:08:42;;;;;;;17.98;8.50;;;;;;;;;;5114134;27;20035;-69
2023/08/22 00:11:08;;;;;;;11.20;7.70;;;;;;;;;;5133109;27;20039;-68
2023/08/22 00:13:34;;;;;;;12.10;8.35;;;;;;;;;;5113299;27;20027;-69
2023/08/22 00:16:00;;;;;;;36.20;16.55;;;;;;;;;;5132737;27;20065;-69
2023/08/22 00:18:27;;;;;;;39.95;17.38;;;;;;;;;;5132917;27;20043;-69
2023/08/22 00:20:53;;;;;;;31.70;15.98;;;;;;;;;;5132458;27;20038;-69
2023/08/22 00:23:19;;;;;;;37.08;12.40;;;;;;;;;;5132724;27;20455;-70
2023/08/22 00:25:45;;;;;;;40.40;17.10;;;;;;;;;;5132223;27;20031;-69
2023/08/22 00:28:14;;;;;;;28.98;13.60;;;;;;;;;;5114352;27;20421;-69
2023/08/22 00:30:41;;;;;;;42.57;14.30;;;;;;;;;;5097666;27;20027;-68
2023/08/22 00:33:06;;;;;;;20.75;10.88;;;;;;;;;;5132395;27;20111;-69
2023/08/22 00:35:32;;;;;;;24.98;13.32;;;;;;;;;;5132170;27;20570;-70
2023/08/22 00:37:59;;;;;;;18.63;10.90;;;;;;;;;;5132176;27;20039;-69
2023/08/22 00:40:25;;;;;;;19.33;10.95;;;;;;;;;;5113886;27;20050;-70
2023/08/22 00:42:51;;;;;;;14.85;10.88;;;;;;;;;;5132025;27;20414;-69
2023/08/22 00:45:18;;;;;;;21.23;11.15;;;;;;;;;;5113918;27;20035;-69
2023/08/22 00:47:44;;;;;;;31.40;10.57;;;;;;;;;;5131955;27;20046;-68
2023/08/22 00:50:10;;;;;;;16.98;9.10;;;;;;;;;;5132080;27;20118;-69
2023/08/22 00:52:36;;;;;;;22.00;9.70;;;;;;;;;;5096828;27;20121;-69
2023/08/22 00:55:04;;;;;;;23.50;10.43;;;;;;;;;;5131757;27;20094;-69
2023/08/22 00:57:31;;;;;;;31.00;12.43;;;;;;;;;;5131894;27;20046;-68
2023/08/22 00:59:57;;;;;;;36.72;14.50;;;;;;;;;;5132138;27;20035;-68
2023/08/22 01:02:23;;;;;;;98.72;26.08;;;;;;;;;;5134444;27;20413;-70
2023/08/22 01:04:49;;;;;;;26.65;10.68;;;;;;;;;;5135128;27;20046;-69
2023/08/22 01:07:20;;;;;;;29.35;10.00;;;;;;;;;;5132909;27;20138;-69
2023/08/22 01:09:48;;;;;;;64.32;19.67;;;;;;;;;;5097029;27;20555;-69
2023/08/22 01:12:24;;;;;;;28.85;11.48;;;;;;;;;;5132861;27;20033;-69
2023/08/22 01:14:51;;;;;;;20.90;11.18;;;;;;;;;;5132217;27;20051;-68
2023/08/22 01:17:17;;;;;;;24.38;10.93;;;;;;;;;;5132249;27;20046;-68
2023/08/22 01:19:43;;;;;;;38.40;13.23;;;;;;;;;;5113670;27;20031;-69
2023/08/22 01:22:10;;;;;;;43.78;10.35;;;;;;;;;;5132649;27;20141;-71
2023/08/22 01:24:36;;;;;;;29.20;11.25;;;;;;;;;;5131243;27;20039;-68
2023/08/22 01:27:03;;;;;;;59.63;17.27;;;;;;;;;;5131555;27;20566;-68
2023/08/22 01:29:32;;;;;;;59.10;16.08;;;;;;;;;;5131483;27;20054;-69
2023/08/22 01:32:00;;;;;;;50.70;16.13;;;;;;;;;;5112945;27;20043;-68
2023/08/22 01:34:27;;;;;;;47.05;15.35;;;;;;;;;;5096156;27;20028;-68
2023/08/22 01:36:56;;;;;;;53.05;17.35;;;;;;;;;;5112898;27;20586;-70
2023/08/22 01:39:22;;;;;;;53.17;15.10;;;;;;;;;;5131354;27;20440;-68
2023/08/22 01:41:50;;;;;;;20.73;9.07;;;;;;;;;;5131155;27;20035;-68
2023/08/22 01:44:16;;;;;;;39.08;12.80;;;;;;;;;;5131275;27;20076;-66
2023/08/22 01:46:42;;;;;;;31.73;13.60;;;;;;;;;;5131047;27;20031;-70
2023/08/22 01:49:08;;;;;;;38.67;14.15;;;;;;;;;;5131303;27;20046;-69
2023/08/22 01:51:34;;;;;;;38.28;13.30;;;;;;;;;;5131355;27;20035;-68
2023/08/22 01:54:00;;;;;;;41.58;13.23;;;;;;;;;;5095617;27;20034;-67
2023/08/22 01:56:26;;;;;;;32.22;11.25;;;;;;;;;;5112757;27;20066;-69
2023/08/22 01:58:52;;;;;;;39.20;12.75;;;;;;;;;;5112352;28;20084;-68
2023/08/22 02:01:19;;;;;;;27.08;9.95;;;;;;;;;;5112654;28;20035;-68
2023/08/22 02:03:46;;;;;;;35.47;11.63;;;;;;;;;;5130709;27;20050;-68
2023/08/22 02:06:12;;;;;;;36.65;10.55;;;;;;;;;;5130830;27;20046;-69
2023/08/22 02:08:39;;;;;;;23.23;10.95;;;;;;;;;;5112497;28;20039;-68
2023/08/22 02:11:05;;;;;;;21.50;7.95;;;;;;;;;;5131323;27;20126;-69
2023/08/22 02:13:32;;;;;;;22.00;7.97;;;;;;;;;;5112897;27;20042;-69
2023/08/22 02:16:00;;;;;;;15.20;7.72;;;;;;;;;;5112190;27;20066;-69
2023/08/22 02:18:27;;;;;;;9.65;7.30;;;;;;;;;;5130748;27;20047;-69
2023/08/22 02:20:54;;;;;;;11.88;7.05;;;;;;;;;;5130983;27;20031;-69
2023/08/22 02:23:20;;;;;;;13.95;7.93;;;;;;;;;;5113628;28;20522;-68
2023/08/22 02:25:46;;;;;;;13.05;7.60;;;;;;;;;;5131583;27;20130;-69
2023/08/22 02:28:12;;;;;;;9.93;7.20;;;;;;;;;;5113389;27;20043;-68
2023/08/22 02:30:38;;;;;;;16.00;7.68;;;;;;;;;;5131785;27;20523;-67
2023/08/22 02:33:04;;;;;;;11.15;6.28;;;;;;;;;;5132151;27;20130;-70
2023/08/22 02:35:31;;;;;;;16.58;6.70;;;;;;;;;;5113628;27;20035;-68
2023/08/22 02:37:57;;;;;;;13.80;6.68;;;;;;;;;;5135075;27;20401;-70
2023/08/22 02:40:24;;;;;;;13.25;6.53;;;;;;;;;;5136174;27;20039;-69
2023/08/22 02:42:50;;;;;;;23.77;7.70;;;;;;;;;;5135874;27;20123;-68
2023/08/22 02:45:16;;;;;;;19.70;6.95;;;;;;;;;;5134863;27;20059;-69
2023/08/22 02:47:42;;;;;;;19.35;8.05;;;;;;;;;;5134606;27;20035;-69
2023/08/22 02:50:08;;;;;;;22.83;7.95;;;;;;;;;;5134449;27;20046;-69
2023/08/22 02:52:36;;;;;;;16.73;8.23;;;;;;;;;;5116211;27;20095;-67
2023/08/22 02:55:03;;;;;;;17.75;7.45;;;;;;;;;;5134023;27;20031;-68
2023/08/22 02:57:30;;;;;;;15.02;7.97;;;;;;;;;;5134385;27;20544;-70
2023/08/22 02:59:57;;;;;;;13.55;8.40;;;;;;;;;;5134075;27;20524;-68
2023/08/22 03:02:22;;;;;;;23.50;8.30;;;;;;;;;;5134520;27;20038;-69
2023/08/22 03:04:52;;;;;;;17.42;8.68;;;;;;;;;;5098583;27;20489;-68
2023/08/22 03:07:18;;;;;;;18.27;8.57;;;;;;;;;;5134352;27;20046;-69
2023/08/22 03:09:44;;;;;;;21.58;8.63;;;;;;;;;;5133956;27;20034;-69
2023/08/22 03:12:10;;;;;;;20.30;8.23;;;;;;;;;;5115825;27;20043;-69
2023/08/22 03:14:37;;;;;;;22.05;8.70;;;;;;;;;;5115676;27;20047;-70
2023/08/22 03:17:03;;;;;;;12.55;9.18;;;;;;;;;;5133867;27;20501;-69
2023/08/22 03:19:29;;;;;;;17.55;9.00;;;;;;;;;;5115722;27;20035;-69
2023/08/22 03:22:00;;;;;;;24.40;8.98;;;;;;;;;;5115294;27;20031;-69
2023/08/22 03:24:26;;;;;;;24.65;9.93;;;;;;;;;;5115444;27;20042;-69
2023/08/22 03:26:52;;;;;;;19.88;9.43;;;;;;;;;;5133583;27;20092;-69
2023/08/22 03:29:18;;;;;;;16.40;8.85;;;;;;;;;;5133624;27;20491;-69
2023/08/22 03:31:45;;;;;;;21.15;9.90;;;;;;;;;;5115074;27;20053;-69
2023/08/22 03:34:12;;;;;;;18.60;9.68;;;;;;;;;;5115360;27;20058;-69
2023/08/22 03:36:37;;;;;;;18.38;9.43;;;;;;;;;;5115210;27;20110;-69
2023/08/22 03:39:06;;;;;;;16.27;9.40;;;;;;;;;;5114953;27;20096;-70
2023/08/22 03:41:32;;;;;;;16.27;8.85;;;;;;;;;;5115232;27;20026;-69
2023/08/22 03:44:00;;;;;;;15.48;9.48;;;;;;;;;;5114802;27;20039;-69
2023/08/22 03:46:27;;;;;;;16.30;8.32;;;;;;;;;;5115116;27;20454;-69
2023/08/22 03:48:54;;;;;;;20.02;10.02;;;;;;;;;;5114771;27;20054;-70
2023/08/22 03:51:20;;;;;;;19.98;9.27;;;;;;;;;;5115009;27;20035;-70
2023/08/22 03:53:46;;;;;;;20.75;9.63;;;;;;;;;;5114824;27;20046;-70
2023/08/22 03:56:13;;;;;;;18.52;10.00;;;;;;;;;;5114870;27;20050;-69
2023/08/22 03:58:39;;;;;;;16.70;9.85;;;;;;;;;;5132931;27;20073;-69
2023/08/22 04:01:05;;;;;;;16.92;9.55;;;;;;;;;;5132842;27;20066;-69
2023/08/22 04:03:31;;;;;;;18.50;10.45;;;;;;;;;;5114715;27;20493;-69
2023/08/22 04:06:00;;;;;;;14.73;9.35;;;;;;;;;;5132777;27;20393;-68
2023/08/22 04:08:27;;;;;;;18.70;10.15;;;;;;;;;;5114784;27;20098;-69
2023/08/22 04:10:53;;;;;;;16.98;9.70;;;;;;;;;;5114607;27;20106;-71
2023/08/22 04:13:20;;;;;;;29.10;11.23;;;;;;;;;;5114679;27;20129;-69
2023/08/22 04:15:47;;;;;;;28.35;10.68;;;;;;;;;;5132565;27;20076;-69
2023/08/22 04:18:13;;;;;;;28.73;10.70;;;;;;;;;;5132768;27;20042;-70
2023/08/22 04:20:42;;;;;;;22.73;9.85;;;;;;;;;;5133091;27;20051;-70
2023/08/22 04:23:09;;;;;;;28.15;10.57;;;;;;;;;;5114629;27;20074;-70
2023/08/22 04:25:35;;;;;;;19.95;9.82;;;;;;;;;;5132670;27;20035;-70
2023/08/22 04:28:02;;;;;;;17.50;9.13;;;;;;;;;;5114121;27;20039;-69
2023/08/22 04:30:28;;;;;;;16.77;9.27;;;;;;;;;;5114249;27;20114;-70
2023/08/22 04:32:55;;;;;;;14.93;9.35;;;;;;;;;;5114079;27;20043;-70
2023/08/22 04:35:22;;;;;;;18.70;9.32;;;;;;;;;;5114222;27;20039;-69
2023/08/22 04:37:51;;;;;;;14.73;8.93;;;;;;;;;;5114236;27;20042;-70
2023/08/22 04:40:17;;;;;;;16.35;8.95;;;;;;;;;;5114437;27;20031;-69
2023/08/22 04:42:47;;;;;;;21.08;9.73;;;;;;;;;;5132872;27;20039;-70
2023/08/22 04:45:14;;;;;;;25.70;10.18;;;;;;;;;;5114212;27;20106;-70
2023/08/22 04:47:41;;;;;;;20.83;8.90;;;;;;;;;;5114182;27;20134;-69
2023/08/22 04:50:07;;;;;;;17.48;9.13;;;;;;;;;;5114026;27;20479;-69
2023/08/22 04:52:34;;;;;;;18.15;8.57;;;;;;;;;;5114106;27;20047;-71
2023/08/22 04:55:00;;;;;;;13.38;8.05;;;;;;;;;;5131652;27;20085;-69
2023/08/22 04:57:26;;;;;;;18.42;7.93;;;;;;;;;;5132114;27;20047;-71
2023/08/22 04:59:52;;;;;;;9.77;7.43;;;;;;;;;;5113027;27;20028;-69
2023/08/22 05:02:19;;;;;;;11.13;7.32;;;;;;;;;;5096816;27;20085;-69
2023/08/22 05:04:45;;;;;;;11.88;7.65;;;;;;;;;;5113974;27;20035;-69
2023/08/22 05:07:11;;;;;;;11.68;7.07;;;;;;;;;;5131922;27;20038;-70
2023/08/22 05:09:37;;;;;;;9.73;7.35;;;;;;;;;;5131710;27;20035;-70
2023/08/22 05:12:04;;;;;;;13.52;8.18;;;;;;;;;;5113448;27;20065;-69
2023/08/22 05:14:33;;;;;;;11.32;7.63;;;;;;;;;;5113407;27;20133;-70
2023/08/22 05:16:59;;;;;;;13.88;8.10;;;;;;;;;;5113438;27;20115;-75
2023/08/22 05:19:25;;;;;;;14.98;8.38;;;;;;;;;;5113979;27;20045;-71
2023/08/22 05:21:52;;;;;;;11.95;7.75;;;;;;;;;;5113255;27;20084;-71
2023/08/22 05:24:18;;;;;;;8.57;7.05;;;;;;;;;;5113392;27;20047;-71
2023/08/22 05:26:44;;;;;;;10.25;7.38;;;;;;;;;;5131689;27;20460;-70
2023/08/22 05:29:10;;;;;;;8.55;7.25;;;;;;;;;;5113077;27;20114;-73
2023/08/22 05:31:36;;;;;;;8.55;7.38;;;;;;;;;;5113118;27;20070;-71
2023/08/22 05:34:04;;;;;;;10.15;6.72;;;;;;;;;;5112787;27;20505;-70
2023/08/22 05:36:30;;;;;;;13.43;6.55;;;;;;;;;;5113424;27;20523;-71
2023/08/22 05:38:56;;;;;;;11.23;7.05;;;;;;;;;;5112855;27;20039;-69
2023/08/22 05:41:23;;;;;;;11.63;7.35;;;;;;;;;;5096102;27;20031;-72
2023/08/22 05:43:50;;;;;;;10.60;6.60;;;;;;;;;;5113100;27;20128;-70
2023/08/22 05:46:16;;;;;;;10.23;6.47;;;;;;;;;;5113009;27;20027;-71
2023/08/22 05:48:42;;;;;;;10.50;6.78;;;;;;;;;;5113175;27;20039;-70
2023/08/22 05:51:08;;;;;;;12.27;6.32;;;;;;;;;;5130723;27;20031;-71
2023/08/22 05:53:34;;;;;;;9.75;7.00;;;;;;;;;;5112628;27;20039;-71
2023/08/22 05:56:00;;;;;;;8.77;5.78;;;;;;;;;;5130251;27;20517;-70
2023/08/22 05:58:26;;;;;;;7.95;5.72;;;;;;;;;;5096168;28;20065;-71
2023/08/22 06:00:53;;;;;;;8.57;5.68;;;;;;;;;;5112025;27;20395;-70
2023/08/22 06:03:20;;;;;;;10.63;5.47;;;;;;;;;;5112799;28;20042;-71
2023/08/22 06:05:48;;;;;;;8.82;5.85;;;;;;;;;;5112739;28;20031;-70
2023/08/22 06:08:14;;;;;;;11.63;5.90;;;;;;;;;;5130772;27;20031;-71
2023/08/22 06:10:42;;;;;;;6.78;5.32;;;;;;;;;;5130849;27;20027;-71
2023/08/22 06:13:09;;;;;;;10.05;5.90;;;;;;;;;;5134755;27;20111;-71
2023/08/22 06:15:35;;;;;;;7.55;5.38;;;;;;;;;;5100179;27;20428;-71
2023/08/22 06:18:02;;;;;;;14.50;5.53;;;;;;;;;;5099978;27;20035;-71
2023/08/22 06:20:29;;;;;;;10.23;5.78;;;;;;;;;;5116913;27;20046;-71
2023/08/22 06:22:56;;;;;;;9.65;5.28;;;;;;;;;;5100120;27;20319;-70
2023/08/22 06:25:22;;;;;;;8.32;5.78;;;;;;;;;;5135212;27;20308;-72
2023/08/22 06:27:49;;;;;;;13.07;5.65;;;;;;;;;;5135542;27;20072;-71
2023/08/22 06:30:16;;;;;;;12.05;5.75;;;;;;;;;;5134600;27;20088;-71
2023/08/22 06:32:42;;;;;;;13.95;6.78;;;;;;;;;;5135459;27;20489;-71
2023/08/22 06:35:08;;;;;;;14.85;6.30;;;;;;;;;;5099386;27;20031;-71
2023/08/22 06:37:34;;;;;;;11.45;6.65;;;;;;;;;;5116928;27;20031;-70
2023/08/22 06:40:01;;;;;;;15.45;6.43;;;;;;;;;;5116446;27;20191;-71
2023/08/22 06:42:29;;;;;;;13.18;6.22;;;;;;;;;;5135077;27;20493;-72
2023/08/22 06:44:55;;;;;;;25.02;6.60;;;;;;;;;;5099253;27;20054;-70
2023/08/22 06:47:21;;;;;;;13.60;6.05;;;;;;;;;;5116452;27;20035;-71
2023/08/22 06:49:47;;;;;;;11.80;6.07;;;;;;;;;;5134966;27;20062;-70
2023/08/22 06:52:15;;;;;;;12.77;6.22;;;;;;;;;;5132464;27;20043;-72
2023/08/22 06:54:41;;;;;;;11.50;5.90;;;;;;;;;;5116729;27;20067;-70
2023/08/22 06:57:07;;;;;;;17.55;6.30;;;;;;;;;;5134347;27;20035;-72
2023/08/22 06:59:34;;;;;;;10.43;6.03;;;;;;;;;;5116712;27;20410;-70
2023/08/22 07:02:00;;;;;;;11.90;5.80;;;;;;;;;;5134642;27;20377;-69
2023/08/22 07:04:31;;;;;;;17.58;5.45;;;;;;;;;;5135254;27;20093;-71
2023/08/22 07:06:57;;;;;;;11.93;5.45;;;;;;;;;;5134428;27;20027;-71
2023/08/22 07:09:24;;;;;;;11.95;5.75;;;;;;;;;;5116469;27;20070;-69
2023/08/22 07:11:50;;;;;;;8.63;5.95;;;;;;;;;;5133651;27;20031;-70
2023/08/22 07:14:16;;;;;;;16.45;5.95;;;;;;;;;;5115560;27;20058;-71
2023/08/22 07:16:43;;;;;;;19.95;6.10;;;;;;;;;;5115402;27;20443;-71
2023/08/22 07:19:09;;;;;;;14.55;5.78;;;;;;;;;;5115271;27;20484;-71
2023/08/22 07:21:36;;;;;;;11.07;5.38;;;;;;;;;;5133900;27;20050;-71
2023/08/22 07:24:04;;;;;;;15.85;5.13;;;;;;;;;;5114158;27;20097;-71
2023/08/22 07:26:30;;;;;;;9.02;5.45;;;;;;;;;;5133737;27;20079;-72
2023/08/22 07:28:57;;;;;;;9.85;4.75;;;;;;;;;;5133442;27;20066;-71
2023/08/22 07:31:24;;;;;;;12.27;4.97;;;;;;;;;;5114888;27;20043;-71
2023/08/22 07:33:51;;;;;;;11.35;5.47;;;;;;;;;;5133842;27;20032;-70
2023/08/22 07:36:21;;;;;;;6.38;4.75;;;;;;;;;;5133311;27;20047;-71
2023/08/22 07:38:47;;;;;;;;;;;;;;;;;;5134053;27;20509;-72
2023/08/22 07:41:13;;;;;;;15.27;5.32;;;;;;;;;;5133157;27;20408;-69
2023/08/22 07:43:40;;;;;;;6.63;5.03;;;;;;;;;;5133630;27;20031;-70
2023/08/22 07:46:07;;;;;;;15.38;4.50;;;;;;;;;;5114637;27;20064;-71
2023/08/22 07:48:33;;;;;;;10.77;5.13;;;;;;;;;;5133402;27;20039;-71
2023/08/22 07:51:00;;;;;;;20.42;5.75;;;;;;;;;;5132709;27;20080;-71
2023/08/22 07:53:27;;;;;;;13.15;4.65;;;;;;;;;;5115055;27;20066;-71
2023/08/22 07:55:53;;;;;;;7.72;4.20;;;;;;;;;;5114673;27;20121;-72
2023/08/22 07:58:19;;;;;;;13.00;4.38;;;;;;;;;;5114547;27;20046;-71
2023/08/22 08:00:48;;;;;;;6.97;5.15;;;;;;;;;;5133210;27;20117;-70
2023/08/22 08:03:16;;;;;;;9.20;4.68;;;;;;;;;;5098483;27;20061;-71
2023/08/22 08:05:44;;;;;;;11.35;4.90;;;;;;;;;;5114862;27;20035;-70
2023/08/22 08:08:12;;;;;;;5.82;4.10;;;;;;;;;;5132724;27;20023;-72
2023/08/22 08:10:39;;;;;;;5.63;4.05;;;;;;;;;;5133026;27;20146;-72
2023/08/22 08:13:05;;;;;;;16.83;4.38;;;;;;;;;;5114605;27;20114;-71
2023/08/22 08:15:31;;;;;;;6.07;4.63;;;;;;;;;;5114393;27;20081;-71
2023/08/22 08:18:01;;;;;;;7.65;3.40;;;;;;;;;;5132981;27;20065;-69
2023/08/22 08:20:28;;;;;;;11.63;4.07;;;;;;;;;;5131627;27;20100;-71
2023/08/22 08:22:55;;;;;;;4.95;3.60;;;;;;;;;;5114850;27;20056;-72
2023/08/22 08:25:22;;;;;;;7.55;3.55;;;;;;;;;;5132490;27;20042;-72
2023/08/22 08:27:49;;;;;;;5.45;3.78;;;;;;;;;;5132619;27;20041;-72
2023/08/22 08:30:18;;;;;;;7.70;3.90;;;;;;;;;;5113778;27;20485;-72
2023/08/22 08:32:49;;;;;;;3.65;3.35;;;;;;;;;;5131689;27;20043;-71
2023/08/22 08:35:17;;;;;;;5.03;3.10;;;;;;;;;;5131397;27;20050;-71
2023/08/22 08:37:45;;;;;;;7.05;3.47;;;;;;;;;;5132443;27;20031;-72
2023/08/22 08:40:11;;;;;;;5.97;3.75;;;;;;;;;;5132106;27;20031;-70
2023/08/22 08:42:38;;;;;;;9.27;3.58;;;;;;;;;;5132313;27;20050;-70
2023/08/22 08:45:07;;;;;;;4.28;3.50;;;;;;;;;;5113804;27;20046;-70
2023/08/22 08:47:38;;;;;;;7.72;3.80;;;;;;;;;;5132376;27;20188;-71
2023/08/22 08:50:07;;;;;;;7.90;3.33;;;;;;;;;;5132142;27;20405;-72
2023/08/22 08:52:33;;;;;;;4.00;3.60;;;;;;;;;;5114485;27;20043;-71
2023/08/22 08:55:05;;;;;;;7.00;4.30;;;;;;;;;;5114187;27;20087;-73
2023/08/22 08:57:33;;;;;;;8.88;4.28;;;;;;;;;;5131801;27;20061;-72
2023/08/22 09:00:00;;;;;;;5.47;3.90;;;;;;;;;;5132150;27;20053;-71
2023/08/22 09:02:28;;;;;;;8.85;3.85;;;;;;;;;;5113872;27;20031;-72
2023/08/22 09:04:56;;;;;;;5.95;3.40;;;;;;;;;;5131896;27;20046;-71
2023/08/22 09:07:23;;;;;;;8.30;3.15;;;;;;;;;;5112907;27;20121;-71
2023/08/22 09:09:49;;;;;;;5.43;3.33;;;;;;;;;;5131610;27;20043;-71
2023/08/22 09:12:16;;;;;;;3.60;3.35;;;;;;;;;;5131384;27;20420;-71
2023/08/22 09:14:46;;;;;;;4.00;3.60;;;;;;;;;;5131511;27;20075;-72
2023/08/22 09:17:18;;;;;;;4.55;4.10;;;;;;;;;;5131323;27;20034;-71
2023/08/22 09:19:47;;;;;;;4.60;4.20;;;;;;;;;;5131834;27;20031;-71
2023/08/22 09:22:16;;;;;;;4.13;3.83;;;;;;;;;;5131462;27;20451;-71
2023/08/22 09:25:00;;;;;;;3.92;3.60;;;;;;;;;;5131510;27;20070;-71
2023/08/22 09:27:27;;;;;;;11.40;3.33;;;;;;;;;;5131217;27;20039;-72
2023/08/22 09:29:58;;;;;;;5.60;4.05;;;;;;;;;;5131326;27;20039;-71
2023/08/22 09:32:25;;;;;;;7.43;4.13;;;;;;;;;;5095525;27;20130;-71
2023/08/22 09:34:51;;;;;;;5.03;4.18;;;;;;;;;;5112981;27;20035;-72
2023/08/22 09:37:40;;;;;;;4.22;3.88;;;;;;;;;;5113524;27;20145;-70
2023/08/22 09:40:10;;;;;;;4.65;3.90;;;;;;;;;;5129192;27;20051;-71
2023/08/22 09:42:40;;;;;;;5.30;3.80;;;;;;;;;;5131159;27;20585;-72
2023/08/22 09:45:07;;;;;;;6.38;3.70;;;;;;;;;;5130778;27;20035;-72
2023/08/22 09:47:36;;;;;;;8.10;3.85;;;;;;;;;;5112948;27;20117;-72
2023/08/22 09:50:04;;;;;;;9.82;4.60;;;;;;;;;;5113498;27;20119;-71
2023/08/22 09:52:31;;;;;;;8.95;4.00;;;;;;;;;;5112207;28;20038;-72
2023/08/22 09:54:57;;;;;;;16.65;4.35;;;;;;;;;;5131086;27;20042;-71
2023/08/22 09:57:25;;;;;;;12.27;4.85;;;;;;;;;;5112490;27;20084;-72
2023/08/22 09:59:51;;;;;;;11.27;4.55;;;;;;;;;;5130982;27;20043;-72
2023/08/22 10:02:18;;;;;;;17.90;4.90;;;;;;;;;;5130493;27;20034;-71
2023/08/22 10:04:46;;;;;;;8.65;5.05;;;;;;;;;;5130998;27;20092;-71
2023/08/22 10:07:13;;;;;;;10.43;4.45;;;;;;;;;;5130316;27;20126;-71
2023/08/22 10:09:41;;;;;;;7.43;5.50;;;;;;;;;;5131007;27;20060;-71
2023/08/22 10:12:12;;;;;;;8.65;4.57;;;;;;;;;;5112174;28;20042;-71
2023/08/22 10:14:37;;;;;;;;;;;;;;;;;;5131221;27;20062;-70
2023/08/22 10:17:05;;;;;;;11.00;4.50;;;;;;;;;;5130749;27;19911;-72
2023/08/22 10:19:31;;;;;;;4.85;4.22;;;;;;;;;;5130545;27;20139;-71
2023/08/22 10:22:07;;;;;;;9.05;5.15;;;;;;;;;;5130644;27;20027;-70
2023/08/22 10:24:34;;;;;;;5.60;4.57;;;;;;;;;;5130945;27;20122;-72
2023/08/22 10:27:02;;;;;;;7.57;4.70;;;;;;;;;;5112187;28;20062;-71
2023/08/22 10:29:35;;;;;;;7.88;4.53;;;;;;;;;;5130508;27;20035;-71
2023/08/22 10:32:04;;;;;;;9.10;4.63;;;;;;;;;;5130560;27;20060;-71
2023/08/22 10:34:40;;;;;;;9.02;5.13;;;;;;;;;;5112278;28;20020;-72
2023/08/22 10:37:07;;;;;;;6.72;4.75;;;;;;;;;;5130619;27;20035;-71
2023/08/22 10:39:39;;;;;;;6.20;5.00;;;;;;;;;;5131019;27;20536;-71
2023/08/22 10:42:06;;;;;;;13.02;4.38;;;;;;;;;;5130551;27;20050;-70
2023/08/22 10:44:32;;;;;;;10.07;4.95;;;;;;;;;;5130678;27;20034;-71
2023/08/22 10:46:58;;;;;;;13.15;5.07;;;;;;;;;;5112527;27;20178;-71
2023/08/22 10:49:29;;;;;;;6.05;4.50;;;;;;;;;;5130679;27;20513;-71
2023/08/22 10:52:11;;;;;;;6.15;4.65;;;;;;;;;;5112428;27;20100;-71
2023/08/22 10:54:56;;;;;;;6.32;5.03;;;;;;;;;;5130479;27;20118;-71
2023/08/22 10:57:22;;;;;;;12.13;4.85;;;;;;;;;;5130871;27;20135;-71
2023/08/22 11:00:13;;;;;;;11.10;5.20;;;;;;;;;;5134754;27;20039;-72
2023/08/22 11:02:40;;;;;;;;;;;;;;;;;;5135123;27;20071;-72
2023/08/22 11:05:10;;;;;;;5.22;4.78;;;;;;;;;;5134717;27;19946;-71
2023/08/22 11:07:42;;;;;;;8.30;5.13;;;;;;;;;;5117417;27;20335;-71
2023/08/22 11:10:11;;;;;;;5.22;4.80;;;;;;;;;;5135584;27;20038;-71
2023/08/22 11:12:37;;;;;;;8.60;5.55;;;;;;;;;;5133174;27;20035;-72
2023/08/22 11:15:04;;;;;;;8.60;5.30;;;;;;;;;;5133816;27;20513;-71
2023/08/22 11:17:31;;;;;;;11.65;5.10;;;;;;;;;;5133644;27;20035;-71
2023/08/22 11:20:00;;;;;;;7.78;5.72;;;;;;;;;;5133967;27;20119;-70
2023/08/22 11:22:29;;;;;;;10.93;5.93;;;;;;;;;;5133621;27;20134;-72
2023/08/22 11:24:54;;;;;;;13.63;5.50;;;;;;;;;;5115635;27;20507;-73
2023/08/22 11:27:22;;;;;;;7.93;5.32;;;;;;;;;;5114904;27;20042;-71
2023/08/22 11:29:50;;;;;;;8.13;5.43;;;;;;;;;;5133801;27;20128;-71
2023/08/22 11:32:26;;;;;;;8.30;5.47;;;;;;;;;;5114992;27;20047;-71
2023/08/22 11:34:55;;;;;;;7.97;5.57;;;;;;;;;;5115582;27;20513;-71
2023/08/22 11:37:21;;;;;;;15.48;5.45;;;;;;;;;;5098141;27;20394;-71
2023/08/22 11:39:50;;;;;;;7.30;5.43;;;;;;;;;;5133729;27;20047;-71
2023/08/22 11:42:16;;;;;;;11.13;5.32;;;;;;;;;;5133573;27;20421;-72
2023/08/22 11:45:00;;;;;;;10.15;5.70;;;;;;;;;;5133594;27;20043;-71
2023/08/22 11:47:44;;;;;;;5.78;5.20;;;;;;;;;;5133390;27;20039;-71
2023/08/22 11:50:14;;;;;;;5.68;5.18;;;;;;;;;;5132815;27;20594;-70
2023/08/22 11:52:41;;;;;;;9.52;5.25;;;;;;;;;;5133255;27;20059;-72
2023/08/22 11:55:07;;;;;;;13.68;6.28;;;;;;;;;;5132265;27;20053;-70
2023/08/22 11:57:37;;;;;;;8.05;5.80;;;;;;;;;;5132966;27;20039;-70
2023/08/22 12:00:13;;;;;;;8.35;6.10;;;;;;;;;;5116002;27;20035;-72
2023/08/22 12:02:59;;;;;;;7.13;5.43;;;;;;;;;;5133260;27;20042;-70
2023/08/22 12:05:31;;;;;;;11.65;5.95;;;;;;;;;;5132901;27;20027;-71
2023/08/22 12:07:58;;;;;;;5.72;5.22;;;;;;;;;;5133051;27;20031;-72
2023/08/22 12:10:26;;;;;;;6.28;5.65;;;;;;;;;;5114531;27;20118;-71
2023/08/22 12:12:53;;;;;;;9.55;5.47;;;;;;;;;;5113097;27;20043;-71
2023/08/22 12:15:19;;;;;;;6.05;5.40;;;;;;;;;;5132623;27;20058;-69
2023/08/22 12:17:49;;;;;;;5.55;5.05;;;;;;;;;;5114943;27;20114;-71
2023/08/22 12:20:19;;;;;;;7.43;5.35;;;;;;;;;;5132678;27;20039;-71
2023/08/22 12:22:45;;;;;;;7.00;5.22;;;;;;;;;;5132859;27;20068;-71
2023/08/22 12:25:12;;;;;;;5.45;4.90;;;;;;;;;;5133198;27;20130;-70
2023/08/22 12:27:39;;;;;;;6.47;5.70;;;;;;;;;;5114139;27;20046;-71
2023/08/22 12:30:06;;;;;;;5.78;5.25;;;;;;;;;;5132063;27;20176;-71
2023/08/22 12:32:33;;;;;;;7.85;5.35;;;;;;;;;;5132329;27;20038;-72
2023/08/22 12:34:59;;;;;;;5.40;5.00;;;;;;;;;;5132655;27;20507;-70
2023/08/22 12:37:27;;;;;;;5.55;5.05;;;;;;;;;;5132139;27;20031;-71
2023/08/22 12:39:54;;;;;;;8.07;5.03;;;;;;;;;;5114472;27;20035;-71
2023/08/22 12:42:21;;;;;;;6.82;5.00;;;;;;;;;;5132090;27;20118;-70
2023/08/22 12:44:47;;;;;;;5.70;5.20;;;;;;;;;;5132919;27;20035;-71
2023/08/22 12:47:13;;;;;;;5.85;5.28;;;;;;;;;;5132466;27;20405;-71
2023/08/22 12:49:39;;;;;;;6.00;5.50;;;;;;;;;;5113863;27;20079;-72
2023/08/22 12:52:05;;;;;;;7.03;5.35;;;;;;;;;;5132235;27;20046;-71
2023/08/22 12:54:34;;;;;;;11.52;5.35;;;;;;;;;;5113486;27;20039;-70
2023/08/22 12:57:02;;;;;;;7.50;6.35;;;;;;;;;;5132000;27;20039;-71
2023/08/22 12:59:28;;;;;;;8.25;5.85;;;;;;;;;;5131810;27;20413;-71
2023/08/22 13:01:56;;;;;;;5.80;5.30;;;;;;;;;;5132058;27;20034;-71
2023/08/22 13:04:22;;;;;;;7.00;5.63;;;;;;;;;;5131677;27;20038;-71
2023/08/22 13:06:49;;;;;;;5.43;4.93;;;;;;;;;;5131871;27;20042;-70
2023/08/22 13:09:18;;;;;;;9.10;5.43;;;;;;;;;;5131756;27;20041;-71
2023/08/22 13:11:47;;;;;;;5.85;5.30;;;;;;;;;;5113694;27;20113;-71
2023/08/22 13:14:14;;;;;;;6.22;4.68;;;;;;;;;;5131538;27;20054;-71
2023/08/22 13:16:42;;;;;;;4.68;4.32;;;;;;;;;;5113075;27;20142;-70
2023/08/22 13:19:08;;;;;;;4.85;4.47;;;;;;;;;;5131590;27;20079;-72
2023/08/22 13:21:34;;;;;;;8.43;4.45;;;;;;;;;;5131045;27;20078;-70
2023/08/22 13:24:04;;;;;;;6.35;5.18;;;;;;;;;;5113340;27;20042;-70
2023/08/22 13:26:30;;;;;;;6.10;5.20;;;;;;;;;;5131209;27;20035;-70
2023/08/22 13:28:58;;;;;;;8.55;4.88;;;;;;;;;;5131556;27;20084;-71
2023/08/22 13:31:28;;;;;;;5.28;4.85;;;;;;;;;;5130916;27;20045;-71
2023/08/22 13:33:55;;;;;;;6.03;5.05;;;;;;;;;;5113754;27;20117;-70
2023/08/22 13:36:21;;;;;;;5.15;4.70;;;;;;;;;;5131022;27;20043;-71
2023/08/22 13:39:00;;;;;;;9.85;5.32;;;;;;;;;;5115398;27;20039;-71
2023/08/22 13:41:27;;;;;;;5.28;4.78;;;;;;;;;;5113556;27;20031;-69
2023/08/22 13:43:55;;;;;;;8.93;5.10;;;;;;;;;;5130754;27;20079;-72
2023/08/22 13:46:24;;;;;;;6.15;4.68;;;;;;;;;;5130741;27;20062;-70
2023/08/22 13:48:51;;;;;;;4.82;4.53;;;;;;;;;;5131569;27;20078;-71
2023/08/22 13:51:18;;;;;;;4.55;4.15;;;;;;;;;;5130439;27;20039;-70
2023/08/22 13:53:45;;;;;;;4.63;4.20;;;;;;;;;;5132643;27;20035;-71
2023/08/22 13:56:13;;;;;;;6.60;4.95;;;;;;;;;;5112552;27;20122;-72
2023/08/22 13:58:39;;;;;;;5.07;4.68;;;;;;;;;;5130746;27;20047;-72
2023/08/22 14:01:06;;;;;;;5.38;4.88;;;;;;;;;;5130376;27;20111;-70
2023/08/22 14:03:32;;;;;;;4.70;4.10;;;;;;;;;;5130720;27;20035;-70
2023/08/22 14:05:58;;;;;;;7.05;4.88;;;;;;;;;;5112558;28;20196;-71
2023/08/22 14:08:26;;;;;;;4.97;4.53;;;;;;;;;;5130822;27;20039;-70
2023/08/22 14:10:56;;;;;;;12.82;4.82;;;;;;;;;;5112177;28;20035;-71
2023/08/22 14:13:24;;;;;;;9.45;5.00;;;;;;;;;;5130812;27;20091;-71
2023/08/22 14:15:52;;;;;;;10.00;5.10;;;;;;;;;;5130574;27;20096;-72
2023/08/22 14:18:18;;;;;;;7.38;5.20;;;;;;;;;;5112593;27;20305;-71
2023/08/22 14:20:44;;;;;;;8.23;5.40;;;;;;;;;;5130525;27;20674;-70
2023/08/22 14:23:10;;;;;;;5.35;4.82;;;;;;;;;;5130538;27;20035;-70
2023/08/22 14:25:39;;;;;;;7.05;4.75;;;;;;;;;;5130329;27;20031;-70
2023/08/22 14:28:06;;;;;;;5.55;5.00;;;;;;;;;;5111910;28;20058;-72
2023/08/22 14:30:33;;;;;;;5.47;4.97;;;;;;;;;;5111970;28;20057;-70
2023/08/22 14:32:59;;;;;;;8.05;6.18;;;;;;;;;;5131934;27;20596;-70
2023/08/22 14:35:24;;;;;;;14.10;5.90;;;;;;;;;;5134411;27;20114;-72